sensor_id;sensor_type;location;lat;lon;timestamp;temperature;humidity
29093;DHT22;16167;48.768;14.984;2023-02-15T00:02:05;0.30;98.60
29093;DHT22;16167;48.768;14.984;2023-02-15T00:04:33;0.30;98.30
29093;DHT22;16167;48.768;14.984;2023-02-15T00:07:19;0.30;98.50
29093;DHT22;16167;48.768;14.984;2023-02-15T00:09:47;0.30;98.30
29093;DHT22;16167;48.768;14.984;2023-02-15T00:12:16;0.30;99.30
29093;DHT22;16167;48.768;14.984;2023-02-15T00:14:44;0.20;99.60
29093;DHT22;16167;48.768;14.984;2023-02-15T00:17:12;0.20;99.90
29093;DHT22;16167;48.768;14.984;2023-02-15T00:19:40;0.20;99.40
29093;DHT22;16167;48.768;14.984;2023-02-15T00:22:09;0.20;98.20
29093;DHT22;16167;48.768;14.984;2023-02-15T00:24:38;0.20;97.30
29093;DHT22;16167;48.768;14.984;2023-02-15T00:27:06;0.20;97.20
29093;DHT22;16167;48.768;14.984;2023-02-15T00:29:35;0.20;97.50
29093;DHT22;16167;48.768;14.984;2023-02-15T00:32:04;0.20;97.90
29093;DHT22;16167;48.768;14.984;2023-02-15T00:34:32;0.20;97.60
29093;DHT22;16167;48.768;14.984;2023-02-15T00:37:01;0.20;97.90
29093;DHT22;16167;48.768;14.984;2023-02-15T00:39:29;0.20;98.80
29093;DHT22;16167;48.768;14.984;2023-02-15T00:41:58;0.20;98.40
29093;DHT22;16167;48.768;14.984;2023-02-15T00:44:26;0.20;98.80
29093;DHT22;16167;48.768;14.984;2023-02-15T00:46:54;0.10;99.40
29093;DHT22;16167;48.768;14.984;2023-02-15T00:49:22;0.10;99.00
29093;DHT22;16167;48.768;14.984;2023-02-15T00:51:50;0.10;99.60
29093;DHT22;16167;48.768;14.984;2023-02-15T00:54:19;0.10;99.90
29093;DHT22;16167;48.768;14.984;2023-02-15T00:56:47;0.10;99.80
29093;DHT22;16167;48.768;14.984;2023-02-15T00:59:16;0.10;99.90
29093;DHT22;16167;48.768;14.984;2023-02-15T01:01:44;0.10;99.90
29093;DHT22;16167;48.768;14.984;2023-02-15T01:04:12;0.10;99.90
29093;DHT22;16167;48.768;14.984;2023-02-15T01:06:41;0.10;99.90
29093;DHT22;16167;48.768;14.984;2023-02-15T01:09:09;0.10;99.90
29093;DHT22;16167;48.768;14.984;2023-02-15T01:11:37;0.10;99.90
29093;DHT22;16167;48.768;14.984;2023-02-15T01:14:05;0.10;98.70
29093;DHT22;16167;48.768;14.984;2023-02-15T01:16:34;0.10;99.00
29093;DHT22;16167;48.768;14.984;2023-02-15T01:19:02;0.10;99.10
29093;DHT22;16167;48.768;14.984;2023-02-15T01:21:31;0.10;99.20
29093;DHT22;16167;48.768;14.984;2023-02-15T01:24:01;0.00;99.20
29093;DHT22;16167;48.768;14.984;2023-02-15T01:26:29;0.00;99.60
29093;DHT22;16167;48.768;14.984;2023-02-15T01:28:57;0.00;99.90
29093;DHT22;16167;48.768;14.984;2023-02-15T01:31:25;0.00;99.90
29093;DHT22;16167;48.768;14.984;2023-02-15T01:33:55;-0.10;99.90
29093;DHT22;16167;48.768;14.984;2023-02-15T01:36:23;0.00;99.90
29093;DHT22;16167;48.768;14.984;2023-02-15T01:38:51;0.00;99.90
29093;DHT22;16167;48.768;14.984;2023-02-15T01:41:19;0.00;99.90
29093;DHT22;16167;48.768;14.984;2023-02-15T01:43:51;0.00;99.20
29093;DHT22;16167;48.768;14.984;2023-02-15T01:46:23;0.00;99.10
29093;DHT22;16167;48.768;14.984;2023-02-15T01:48:56;-0.10;99.10
29093;DHT22;16167;48.768;14.984;2023-02-15T01:51:27;-0.10;99.30
29093;DHT22;16167;48.768;14.984;2023-02-15T01:54:00;-0.10;99.80
29093;DHT22;16167;48.768;14.984;2023-02-15T01:56:32;-0.10;99.90
29093;DHT22;16167;48.768;14.984;2023-02-15T01:59:05;-0.10;99.90
29093;DHT22;16167;48.768;14.984;2023-02-15T02:01:34;-0.10;99.90
29093;DHT22;16167;48.768;14.984;2023-02-15T02:04:10;-0.20;99.90
29093;DHT22;16167;48.768;14.984;2023-02-15T02:06:41;-0.20;99.90
29093;DHT22;16167;48.768;14.984;2023-02-15T02:09:10;-0.20;99.90
29093;DHT22;16167;48.768;14.984;2023-02-15T02:11:40;-0.10;99.90
29093;DHT22;16167;48.768;14.984;2023-02-15T02:14:09;-0.20;99.90
29093;DHT22;16167;48.768;14.984;2023-02-15T02:16:45;-0.20;99.90
29093;DHT22;16167;48.768;14.984;2023-02-15T02:19:46;-0.20;99.90
29093;DHT22;16167;48.768;14.984;2023-02-15T02:25:59;-0.10;99.90
29093;DHT22;16167;48.768;14.984;2023-02-15T02:31:49;-0.20;99.90
29093;DHT22;16167;48.768;14.984;2023-02-15T02:34:27;-0.20;99.30
29093;DHT22;16167;48.768;14.984;2023-02-15T02:37:03;-0.20;99.10
29093;DHT22;16167;48.768;14.984;2023-02-15T02:39:44;-0.20;98.50
29093;DHT22;16167;48.768;14.984;2023-02-15T02:42:17;-0.20;98.60
29093;DHT22;16167;48.768;14.984;2023-02-15T02:44:51;-0.30;98.80
29093;DHT22;16167;48.768;14.984;2023-02-15T02:47:23;-0.30;99.70
29093;DHT22;16167;48.768;14.984;2023-02-15T02:50:00;-0.30;99.90
29093;DHT22;16167;48.768;14.984;2023-02-15T02:52:38;-0.30;99.90
29093;DHT22;16167;48.768;14.984;2023-02-15T02:55:10;-0.30;99.90
29093;DHT22;16167;48.768;14.984;2023-02-15T02:57:43;-0.30;99.90
29093;DHT22;16167;48.768;14.984;2023-02-15T03:00:15;-0.30;99.90
29093;DHT22;16167;48.768;14.984;2023-02-15T03:02:46;-0.30;99.90
29093;DHT22;16167;48.768;14.984;2023-02-15T03:05:20;-0.30;99.90
29093;DHT22;16167;48.768;14.984;2023-02-15T03:07:50;-0.30;99.90
29093;DHT22;16167;48.768;14.984;2023-02-15T03:10:22;-0.30;99.90
29093;DHT22;16167;48.768;14.984;2023-02-15T03:12:51;-0.30;99.90
29093;DHT22;16167;48.768;14.984;2023-02-15T03:15:23;-0.30;99.90
29093;DHT22;16167;48.768;14.984;2023-02-15T03:17:55;-0.30;99.90
29093;DHT22;16167;48.768;14.984;2023-02-15T03:20:28;-0.30;99.90
29093;DHT22;16167;48.768;14.984;2023-02-15T03:23:00;-0.30;99.90
29093;DHT22;16167;48.768;14.984;2023-02-15T03:25:33;-0.30;99.90
29093;DHT22;16167;48.768;14.984;2023-02-15T03:28:04;-0.30;99.90
29093;DHT22;16167;48.768;14.984;2023-02-15T03:30:34;-0.30;99.90
29093;DHT22;16167;48.768;14.984;2023-02-15T03:33:04;-0.30;99.90
29093;DHT22;16167;48.768;14.984;2023-02-15T03:35:40;-0.30;99.90
29093;DHT22;16167;48.768;14.984;2023-02-15T03:38:13;-0.30;99.90
29093;DHT22;16167;48.768;14.984;2023-02-15T03:40:46;-0.40;99.90
29093;DHT22;16167;48.768;14.984;2023-02-15T03:43:40;-0.40;98.80
29093;DHT22;16167;48.768;14.984;2023-02-15T03:46:12;-0.30;97.20
29093;DHT22;16167;48.768;14.984;2023-02-15T03:48:44;-0.30;97.00
29093;DHT22;16167;48.768;14.984;2023-02-15T03:51:18;-0.40;96.90
29093;DHT22;16167;48.768;14.984;2023-02-15T03:54:05;-0.40;98.10
29093;DHT22;16167;48.768;14.984;2023-02-15T03:56:36;-0.40;98.00
29093;DHT22;16167;48.768;14.984;2023-02-15T03:59:04;-0.50;98.40
29093;DHT22;16167;48.768;14.984;2023-02-15T04:02:02;-0.50;98.60
29093;DHT22;16167;48.768;14.984;2023-02-15T04:04:35;-0.50;98.80
29093;DHT22;16167;48.768;14.984;2023-02-15T04:07:06;-0.50;98.30
29093;DHT22;16167;48.768;14.984;2023-02-15T04:09:35;-0.60;97.50
29093;DHT22;16167;48.768;14.984;2023-02-15T04:12:20;-0.60;97.70
29093;DHT22;16167;48.768;14.984;2023-02-15T04:14:48;-0.60;97.50
29093;DHT22;16167;48.768;14.984;2023-02-15T04:17:35;-0.60;96.80
29093;DHT22;16167;48.768;14.984;2023-02-15T04:20:05;-0.60;96.70
29093;DHT22;16167;48.768;14.984;2023-02-15T04:22:52;-0.70;96.60
29093;DHT22;16167;48.768;14.984;2023-02-15T04:25:38;-0.70;96.80
29093;DHT22;16167;48.768;14.984;2023-02-15T04:28:06;-0.70;95.60
29093;DHT22;16167;48.768;14.984;2023-02-15T04:30:34;-0.80;96.90
29093;DHT22;16167;48.768;14.984;2023-02-15T04:33:03;-0.80;97.70
29093;DHT22;16167;48.768;14.984;2023-02-15T04:35:31;-0.80;97.60
29093;DHT22;16167;48.768;14.984;2023-02-15T04:38:01;-0.80;96.80
29093;DHT22;16167;48.768;14.984;2023-02-15T04:40:29;-0.80;96.80
29093;DHT22;16167;48.768;14.984;2023-02-15T04:42:57;-0.80;98.20
29093;DHT22;16167;48.768;14.984;2023-02-15T04:45:25;-0.80;99.30
29093;DHT22;16167;48.768;14.984;2023-02-15T04:47:54;-0.80;97.80
29093;DHT22;16167;48.768;14.984;2023-02-15T04:50:22;-0.80;99.00
29093;DHT22;16167;48.768;14.984;2023-02-15T04:52:50;-0.80;99.30
29093;DHT22;16167;48.768;14.984;2023-02-15T04:55:19;-0.80;98.90
29093;DHT22;16167;48.768;14.984;2023-02-15T04:57:47;-0.80;97.30
29093;DHT22;16167;48.768;14.984;2023-02-15T05:00:16;-0.80;97.50
29093;DHT22;16167;48.768;14.984;2023-02-15T05:02:44;-0.80;98.50
29093;DHT22;16167;48.768;14.984;2023-02-15T05:05:12;-0.80;98.90
29093;DHT22;16167;48.768;14.984;2023-02-15T05:07:43;-0.90;99.00
29093;DHT22;16167;48.768;14.984;2023-02-15T05:10:11;-0.90;98.80
29093;DHT22;16167;48.768;14.984;2023-02-15T05:12:40;-0.90;98.30
29093;DHT22;16167;48.768;14.984;2023-02-15T05:15:08;-0.90;98.80
29093;DHT22;16167;48.768;14.984;2023-02-15T05:17:37;-0.90;98.70
29093;DHT22;16167;48.768;14.984;2023-02-15T05:20:06;-0.90;99.30
29093;DHT22;16167;48.768;14.984;2023-02-15T05:22:34;-0.90;98.00
29093;DHT22;16167;48.768;14.984;2023-02-15T05:25:02;-0.90;96.80
29093;DHT22;16167;48.768;14.984;2023-02-15T05:27:49;-0.90;97.50
29093;DHT22;16167;48.768;14.984;2023-02-15T05:30:35;-0.90;97.20
29093;DHT22;16167;48.768;14.984;2023-02-15T05:33:03;-0.90;96.50
29093;DHT22;16167;48.768;14.984;2023-02-15T05:35:32;-0.90;96.70
29093;DHT22;16167;48.768;14.984;2023-02-15T05:38:00;-0.90;97.10
29093;DHT22;16167;48.768;14.984;2023-02-15T05:40:28;-0.90;97.20
29093;DHT22;16167;48.768;14.984;2023-02-15T05:42:57;-1.00;97.30
29093;DHT22;16167;48.768;14.984;2023-02-15T05:45:26;-1.00;97.60
29093;DHT22;16167;48.768;14.984;2023-02-15T05:47:54;-1.00;98.40
29093;DHT22;16167;48.768;14.984;2023-02-15T05:50:24;-1.00;98.50
29093;DHT22;16167;48.768;14.984;2023-02-15T05:52:52;-1.00;99.70
29093;DHT22;16167;48.768;14.984;2023-02-15T05:55:21;-1.00;99.30
29093;DHT22;16167;48.768;14.984;2023-02-15T05:57:49;-1.00;99.00
29093;DHT22;16167;48.768;14.984;2023-02-15T06:00:19;-1.00;99.60
29093;DHT22;16167;48.768;14.984;2023-02-15T06:02:47;-1.00;99.90
29093;DHT22;16167;48.768;14.984;2023-02-15T06:05:15;-0.90;99.90
29093;DHT22;16167;48.768;14.984;2023-02-15T06:07:43;-0.90;99.70
29093;DHT22;16167;48.768;14.984;2023-02-15T06:10:12;-0.90;99.90
29093;DHT22;16167;48.768;14.984;2023-02-15T06:12:40;-0.90;99.10
29093;DHT22;16167;48.768;14.984;2023-02-15T06:15:08;-0.90;97.70
29093;DHT22;16167;48.768;14.984;2023-02-15T06:17:38;-1.00;98.80
29093;DHT22;16167;48.768;14.984;2023-02-15T06:20:09;-0.90;99.70
29093;DHT22;16167;48.768;14.984;2023-02-15T06:22:37;-1.00;99.70
29093;DHT22;16167;48.768;14.984;2023-02-15T06:25:05;-1.00;99.70
29093;DHT22;16167;48.768;14.984;2023-02-15T06:27:36;-1.00;99.60
29093;DHT22;16167;48.768;14.984;2023-02-15T06:30:05;-1.00;99.80
29093;DHT22;16167;48.768;14.984;2023-02-15T06:32:35;-1.00;99.90
29093;DHT22;16167;48.768;14.984;2023-02-15T06:35:05;-1.00;99.90
29093;DHT22;16167;48.768;14.984;2023-02-15T06:37:33;-1.00;99.90
29093;DHT22;16167;48.768;14.984;2023-02-15T06:40:01;-1.00;99.60
29093;DHT22;16167;48.768;14.984;2023-02-15T06:42:31;-0.90;99.90
29093;DHT22;16167;48.768;14.984;2023-02-15T06:44:59;-0.90;99.90
29093;DHT22;16167;48.768;14.984;2023-02-15T06:47:27;-0.90;97.90
29093;DHT22;16167;48.768;14.984;2023-02-15T06:49:56;-0.90;97.60
29093;DHT22;16167;48.768;14.984;2023-02-15T06:52:25;-0.90;98.30
29093;DHT22;16167;48.768;14.984;2023-02-15T06:54:55;-0.80;98.20
29093;DHT22;16167;48.768;14.984;2023-02-15T06:57:23;-0.90;98.50
29093;DHT22;16167;48.768;14.984;2023-02-15T06:59:51;-0.90;98.30
29093;DHT22;16167;48.768;14.984;2023-02-15T07:02:19;-0.80;99.30
29093;DHT22;16167;48.768;14.984;2023-02-15T07:04:47;-0.80;98.40
29093;DHT22;16167;48.768;14.984;2023-02-15T07:07:16;-0.80;97.10
29093;DHT22;16167;48.768;14.984;2023-02-15T07:09:45;-0.80;97.90
29093;DHT22;16167;48.768;14.984;2023-02-15T07:12:13;-0.80;98.60
29093;DHT22;16167;48.768;14.984;2023-02-15T07:14:59;-0.80;97.30
29093;DHT22;16167;48.768;14.984;2023-02-15T07:17:27;-0.70;97.70
29093;DHT22;16167;48.768;14.984;2023-02-15T07:20:05;-0.70;98.10
29093;DHT22;16167;48.768;14.984;2023-02-15T07:22:35;-0.70;97.30
29093;DHT22;16167;48.768;14.984;2023-02-15T07:25:07;-0.70;97.60
29093;DHT22;16167;48.768;14.984;2023-02-15T07:27:35;-0.70;98.00
29093;DHT22;16167;48.768;14.984;2023-02-15T07:30:05;-0.60;98.40
29093;DHT22;16167;48.768;14.984;2023-02-15T07:32:33;-0.60;98.00
29093;DHT22;16167;48.768;14.984;2023-02-15T07:35:02;-0.50;98.40
29093;DHT22;16167;48.768;14.984;2023-02-15T07:37:30;-0.50;96.90
29093;DHT22;16167;48.768;14.984;2023-02-15T07:39:58;-0.50;97.40
29093;DHT22;16167;48.768;14.984;2023-02-15T07:42:27;-0.50;97.80
29093;DHT22;16167;48.768;14.984;2023-02-15T07:44:58;-0.40;96.90
29093;DHT22;16167;48.768;14.984;2023-02-15T07:47:26;-0.30;94.90
29093;DHT22;16167;48.768;14.984;2023-02-15T07:49:54;-0.30;94.40
29093;DHT22;16167;48.768;14.984;2023-02-15T07:52:22;-0.30;92.70
29093;DHT22;16167;48.768;14.984;2023-02-15T07:54:50;-0.30;93.30
29093;DHT22;16167;48.768;14.984;2023-02-15T07:57:18;-0.20;92.20
29093;DHT22;16167;48.768;14.984;2023-02-15T07:59:48;-0.20;93.70
29093;DHT22;16167;48.768;14.984;2023-02-15T08:02:16;-0.20;92.60
29093;DHT22;16167;48.768;14.984;2023-02-15T08:04:44;-0.10;92.50
29093;DHT22;16167;48.768;14.984;2023-02-15T08:07:12;-0.10;92.00
29093;DHT22;16167;48.768;14.984;2023-02-15T08:09:40;-0.10;90.70
29093;DHT22;16167;48.768;14.984;2023-02-15T08:12:08;-0.10;90.10
29093;DHT22;16167;48.768;14.984;2023-02-15T08:14:36;-0.10;90.50
29093;DHT22;16167;48.768;14.984;2023-02-15T08:17:06;0.00;90.30
29093;DHT22;16167;48.768;14.984;2023-02-15T08:19:34;0.00;86.50
29093;DHT22;16167;48.768;14.984;2023-02-15T08:22:03;0.10;89.60
29093;DHT22;16167;48.768;14.984;2023-02-15T08:24:32;0.10;89.00
29093;DHT22;16167;48.768;14.984;2023-02-15T08:27:00;0.20;87.70
29093;DHT22;16167;48.768;14.984;2023-02-15T08:29:33;0.10;70.80
29093;DHT22;16167;48.768;14.984;2023-02-15T08:32:04;0.20;68.20
29093;DHT22;16167;48.768;14.984;2023-02-15T08:34:36;0.20;73.70
29093;DHT22;16167;48.768;14.984;2023-02-15T08:37:05;0.30;80.80
29093;DHT22;16167;48.768;14.984;2023-02-15T08:39:33;0.30;76.20
29093;DHT22;16167;48.768;14.984;2023-02-15T08:42:02;0.30;69.20
29093;DHT22;16167;48.768;14.984;2023-02-15T08:44:30;0.40;61.10
29093;DHT22;16167;48.768;14.984;2023-02-15T08:46:58;0.40;63.70
29093;DHT22;16167;48.768;14.984;2023-02-15T08:49:30;0.40;60.10
29093;DHT22;16167;48.768;14.984;2023-02-15T08:52:00;0.40;67.20
29093;DHT22;16167;48.768;14.984;2023-02-15T08:54:28;0.40;56.90
29093;DHT22;16167;48.768;14.984;2023-02-15T08:56:56;0.60;60.40
29093;DHT22;16167;48.768;14.984;2023-02-15T08:59:24;0.60;64.20
29093;DHT22;16167;48.768;14.984;2023-02-15T09:01:54;0.70;60.30
29093;DHT22;16167;48.768;14.984;2023-02-15T09:04:22;0.80;55.50
29093;DHT22;16167;48.768;14.984;2023-02-15T09:06:51;0.80;55.60
29093;DHT22;16167;48.768;14.984;2023-02-15T09:09:20;0.90;56.20
29093;DHT22;16167;48.768;14.984;2023-02-15T09:11:50;0.90;44.00
29093;DHT22;16167;48.768;14.984;2023-02-15T09:14:25;1.00;30.30
29093;DHT22;16167;48.768;14.984;2023-02-15T09:16:53;1.10;32.40
29093;DHT22;16167;48.768;14.984;2023-02-15T09:19:22;1.20;36.30
29093;DHT22;16167;48.768;14.984;2023-02-15T09:21:51;1.20;30.00
29093;DHT22;16167;48.768;14.984;2023-02-15T09:24:21;1.20;21.70
29093;DHT22;16167;48.768;14.984;2023-02-15T09:26:49;1.30;28.30
29093;DHT22;16167;48.768;14.984;2023-02-15T09:29:18;1.30;18.40
29093;DHT22;16167;48.768;14.984;2023-02-15T09:31:48;1.30;20.30
29093;DHT22;16167;48.768;14.984;2023-02-15T09:34:18;1.50;26.70
29093;DHT22;16167;48.768;14.984;2023-02-15T09:36:47;1.60;19.40
29093;DHT22;16167;48.768;14.984;2023-02-15T09:39:17;1.60;16.40
29093;DHT22;16167;48.768;14.984;2023-02-15T09:45:05;1.80;15.00
29093;DHT22;16167;48.768;14.984;2023-02-15T09:47:54;1.80;27.70
29093;DHT22;16167;48.768;14.984;2023-02-15T09:50:33;1.90;29.00
29093;DHT22;16167;48.768;14.984;2023-02-15T09:53:17;1.90;23.30
29093;DHT22;16167;48.768;14.984;2023-02-15T09:55:55;2.00;35.30
29093;DHT22;16167;48.768;14.984;2023-02-15T09:58:32;2.20;31.80
29093;DHT22;16167;48.768;14.984;2023-02-15T10:01:08;2.50;28.50
29093;DHT22;16167;48.768;14.984;2023-02-15T10:03:57;2.70;16.00
29093;DHT22;16167;48.768;14.984;2023-02-15T10:06:34;2.80;5.40
29093;DHT22;16167;48.768;14.984;2023-02-15T10:09:26;3.00;13.60
29093;DHT22;16167;48.768;14.984;2023-02-15T10:12:18;3.10;10.00
29093;DHT22;16167;48.768;14.984;2023-02-15T10:18:15;3.20;7.70
29093;DHT22;16167;48.768;14.984;2023-02-15T10:20:55;3.20;8.90
29093;DHT22;16167;48.768;14.984;2023-02-15T10:23:50;3.30;11.80
29093;DHT22;16167;48.768;14.984;2023-02-15T10:26:28;3.50;11.90
29093;DHT22;16167;48.768;14.984;2023-02-15T10:29:03;3.60;9.70
29093;DHT22;16167;48.768;14.984;2023-02-15T10:31:43;3.80;4.50
29093;DHT22;16167;48.768;14.984;2023-02-15T10:34:17;3.90;8.80
29093;DHT22;16167;48.768;14.984;2023-02-15T10:37:07;4.00;9.70
29093;DHT22;16167;48.768;14.984;2023-02-15T10:39:45;4.20;9.40
29093;DHT22;16167;48.768;14.984;2023-02-15T10:42:23;4.60;12.40
29093;DHT22;16167;48.768;14.984;2023-02-15T10:45:06;4.80;26.20
29093;DHT22;16167;48.768;14.984;2023-02-15T10:48:02;4.90;13.70
29093;DHT22;16167;48.768;14.984;2023-02-15T10:50:44;5.30;13.10
29093;DHT22;16167;48.768;14.984;2023-02-15T10:53:27;6.10;24.50
29093;DHT22;16167;48.768;14.984;2023-02-15T10:56:03;6.80;33.50
29093;DHT22;16167;48.768;14.984;2023-02-15T10:58:44;7.00;59.00
29093;DHT22;16167;48.768;14.984;2023-02-15T11:01:20;7.10;74.80
29093;DHT22;16167;48.768;14.984;2023-02-15T11:04:11;7.50;71.10
29093;DHT22;16167;48.768;14.984;2023-02-15T11:06:48;7.80;75.00
29093;DHT22;16167;48.768;14.984;2023-02-15T11:09:21;8.10;77.60
29093;DHT22;16167;48.768;14.984;2023-02-15T11:11:52;8.20;74.00
29093;DHT22;16167;48.768;14.984;2023-02-15T11:14:27;8.50;72.70
29093;DHT22;16167;48.768;14.984;2023-02-15T11:17:02;8.80;73.60
29093;DHT22;16167;48.768;14.984;2023-02-15T11:19:35;9.30;72.90
29093;DHT22;16167;48.768;14.984;2023-02-15T11:22:06;9.60;74.70
29093;DHT22;16167;48.768;14.984;2023-02-15T11:24:35;10.00;74.00
29093;DHT22;16167;48.768;14.984;2023-02-15T11:27:18;10.40;73.30
29093;DHT22;16167;48.768;14.984;2023-02-15T11:29:53;10.80;71.50
29093;DHT22;16167;48.768;14.984;2023-02-15T11:32:25;10.90;72.90
29093;DHT22;16167;48.768;14.984;2023-02-15T11:34:59;11.30;73.50
29093;DHT22;16167;48.768;14.984;2023-02-15T11:37:33;11.50;71.50
29093;DHT22;16167;48.768;14.984;2023-02-15T11:40:19;11.90;66.30
29093;DHT22;16167;48.768;14.984;2023-02-15T11:42:50;12.10;64.30
29093;DHT22;16167;48.768;14.984;2023-02-15T11:45:26;12.20;61.50
29093;DHT22;16167;48.768;14.984;2023-02-15T11:47:55;12.40;63.30
29093;DHT22;16167;48.768;14.984;2023-02-15T11:50:27;12.70;62.70
29093;DHT22;16167;48.768;14.984;2023-02-15T11:52:59;13.00;57.70
29093;DHT22;16167;48.768;14.984;2023-02-15T11:55:28;13.20;56.90
29093;DHT22;16167;48.768;14.984;2023-02-15T11:58:01;13.30;54.20
29093;DHT22;16167;48.768;14.984;2023-02-15T12:00:35;13.40;56.60
29093;DHT22;16167;48.768;14.984;2023-02-15T12:03:12;13.80;57.00
29093;DHT22;16167;48.768;14.984;2023-02-15T12:05:46;14.10;53.60
29093;DHT22;16167;48.768;14.984;2023-02-15T12:08:20;14.30;52.70
29093;DHT22;16167;48.768;14.984;2023-02-15T12:10:58;14.40;52.30
29093;DHT22;16167;48.768;14.984;2023-02-15T12:13:28;14.80;50.10
29093;DHT22;16167;48.768;14.984;2023-02-15T12:15:58;15.10;50.80
29093;DHT22;16167;48.768;14.984;2023-02-15T12:18:36;15.40;52.10
29093;DHT22;16167;48.768;14.984;2023-02-15T12:21:09;15.60;45.90
29093;DHT22;16167;48.768;14.984;2023-02-15T12:23:43;15.70;46.80
29093;DHT22;16167;48.768;14.984;2023-02-15T12:26:15;16.10;44.90
29093;DHT22;16167;48.768;14.984;2023-02-15T12:28:51;16.10;45.20
29093;DHT22;16167;48.768;14.984;2023-02-15T12:31:24;16.40;44.80
29093;DHT22;16167;48.768;14.984;2023-02-15T12:33:57;16.60;42.70
29093;DHT22;16167;48.768;14.984;2023-02-15T12:36:30;17.10;41.60
29093;DHT22;16167;48.768;14.984;2023-02-15T12:39:04;17.30;41.00
29093;DHT22;16167;48.768;14.984;2023-02-15T12:41:33;17.90;40.00
29093;DHT22;16167;48.768;14.984;2023-02-15T12:44:07;18.40;37.50
29093;DHT22;16167;48.768;14.984;2023-02-15T12:46:56;18.80;37.60
29093;DHT22;16167;48.768;14.984;2023-02-15T12:49:25;19.00;33.80
29093;DHT22;16167;48.768;14.984;2023-02-15T12:51:56;19.30;33.10
29093;DHT22;16167;48.768;14.984;2023-02-15T12:54:38;19.50;32.50
29093;DHT22;16167;48.768;14.984;2023-02-15T12:57:23;19.90;31.40
29093;DHT22;16167;48.768;14.984;2023-02-15T12:59:54;20.00;29.90
29093;DHT22;16167;48.768;14.984;2023-02-15T13:02:27;20.20;29.50
29093;DHT22;16167;48.768;14.984;2023-02-15T13:04:56;20.40;29.60
29093;DHT22;16167;48.768;14.984;2023-02-15T13:07:30;20.70;29.30
29093;DHT22;16167;48.768;14.984;2023-02-15T13:09:59;20.80;28.40
29093;DHT22;16167;48.768;14.984;2023-02-15T13:12:29;21.00;28.10
29093;DHT22;16167;48.768;14.984;2023-02-15T13:14:58;21.20;28.20
29093;DHT22;16167;48.768;14.984;2023-02-15T13:17:31;21.40;28.10
29093;DHT22;16167;48.768;14.984;2023-02-15T13:20:04;21.60;27.60
29093;DHT22;16167;48.768;14.984;2023-02-15T13:22:40;21.50;27.60
29093;DHT22;16167;48.768;14.984;2023-02-15T13:25:14;21.70;27.70
29093;DHT22;16167;48.768;14.984;2023-02-15T13:27:46;21.70;28.20
29093;DHT22;16167;48.768;14.984;2023-02-15T13:30:25;22.10;27.00
29093;DHT22;16167;48.768;14.984;2023-02-15T13:32:56;21.80;27.60
29093;DHT22;16167;48.768;14.984;2023-02-15T13:35:29;21.80;27.30
29093;DHT22;16167;48.768;14.984;2023-02-15T13:38:16;21.60;27.50
29093;DHT22;16167;48.768;14.984;2023-02-15T13:40:52;21.40;27.80
29093;DHT22;16167;48.768;14.984;2023-02-15T13:43:33;21.60;27.60
29093;DHT22;16167;48.768;14.984;2023-02-15T13:46:12;21.60;27.20
29093;DHT22;16167;48.768;14.984;2023-02-15T13:48:48;21.40;26.90
29093;DHT22;16167;48.768;14.984;2023-02-15T13:51:22;21.40;27.00
29093;DHT22;16167;48.768;14.984;2023-02-15T13:54:31;21.00;27.60
29093;DHT22;16167;48.768;14.984;2023-02-15T13:57:14;21.10;27.10
29093;DHT22;16167;48.768;14.984;2023-02-15T13:59:51;20.90;27.00
29093;DHT22;16167;48.768;14.984;2023-02-15T14:02:38;21.00;27.30
29093;DHT22;16167;48.768;14.984;2023-02-15T14:08:04;20.80;27.60
29093;DHT22;16167;48.768;14.984;2023-02-15T14:10:44;20.80;27.90
29093;DHT22;16167;48.768;14.984;2023-02-15T14:13:48;20.70;27.80
29093;DHT22;16167;48.768;14.984;2023-02-15T14:16:27;20.70;27.80
29093;DHT22;16167;48.768;14.984;2023-02-15T14:19:09;20.50;27.90
29093;DHT22;16167;48.768;14.984;2023-02-15T14:21:45;20.10;29.00
29093;DHT22;16167;48.768;14.984;2023-02-15T14:24:30;19.30;29.50
29093;DHT22;16167;48.768;14.984;2023-02-15T14:27:12;18.40;30.10
29093;DHT22;16167;48.768;14.984;2023-02-15T14:29:49;17.70;31.90
29093;DHT22;16167;48.768;14.984;2023-02-15T14:32:25;16.80;34.00
29093;DHT22;16167;48.768;14.984;2023-02-15T14:34:57;16.10;35.00
29093;DHT22;16167;48.768;14.984;2023-02-15T14:37:38;15.50;36.20
29093;DHT22;16167;48.768;14.984;2023-02-15T14:40:16;15.10;37.40
29093;DHT22;16167;48.768;14.984;2023-02-15T14:43:11;14.40;38.20
29093;DHT22;16167;48.768;14.984;2023-02-15T14:45:57;13.50;40.70
29093;DHT22;16167;48.768;14.984;2023-02-15T14:48:31;12.80;43.00
29093;DHT22;16167;48.768;14.984;2023-02-15T14:51:00;12.30;44.50
29093;DHT22;16167;48.768;14.984;2023-02-15T14:53:36;11.80;46.10
29093;DHT22;16167;48.768;14.984;2023-02-15T14:56:17;11.30;47.70
29093;DHT22;16167;48.768;14.984;2023-02-15T14:58:59;11.20;49.20
29093;DHT22;16167;48.768;14.984;2023-02-15T15:01:29;11.90;47.60
29093;DHT22;16167;48.768;14.984;2023-02-15T15:04:00;12.60;45.80
29093;DHT22;16167;48.768;14.984;2023-02-15T15:06:32;13.10;44.50
29093;DHT22;16167;48.768;14.984;2023-02-15T15:09:10;13.60;43.20
29093;DHT22;16167;48.768;14.984;2023-02-15T15:11:44;13.40;42.60
29093;DHT22;16167;48.768;14.984;2023-02-15T15:14:41;13.20;43.80
29093;DHT22;16167;48.768;14.984;2023-02-15T15:17:11;13.00;44.00
29093;DHT22;16167;48.768;14.984;2023-02-15T15:20:05;13.00;44.60
29093;DHT22;16167;48.768;14.984;2023-02-15T15:22:41;12.40;45.30
29093;DHT22;16167;48.768;14.984;2023-02-15T15:25:10;11.50;47.70
29093;DHT22;16167;48.768;14.984;2023-02-15T15:27:50;10.80;49.50
29093;DHT22;16167;48.768;14.984;2023-02-15T15:34:06;9.60;54.30
29093;DHT22;16167;48.768;14.984;2023-02-15T15:37:16;9.30;54.80
29093;DHT22;16167;48.768;14.984;2023-02-15T15:43:18;8.40;54.20
29093;DHT22;16167;48.768;14.984;2023-02-15T15:48:45;7.80;58.40
29093;DHT22;16167;48.768;14.984;2023-02-15T15:51:18;7.50;58.40
29093;DHT22;16167;48.768;14.984;2023-02-15T15:53:49;7.30;59.50
29093;DHT22;16167;48.768;14.984;2023-02-15T15:56:22;7.10;59.80
29093;DHT22;16167;48.768;14.984;2023-02-15T15:58:55;6.90;57.10
29093;DHT22;16167;48.768;14.984;2023-02-15T16:01:26;6.70;56.50
29093;DHT22;16167;48.768;14.984;2023-02-15T16:03:57;6.60;50.90
29093;DHT22;16167;48.768;14.984;2023-02-15T16:06:33;6.30;50.20
29093;DHT22;16167;48.768;14.984;2023-02-15T16:09:12;6.20;48.00
29093;DHT22;16167;48.768;14.984;2023-02-15T16:11:41;6.00;46.00
29093;DHT22;16167;48.768;14.984;2023-02-15T16:14:14;5.90;35.40
29093;DHT22;16167;48.768;14.984;2023-02-15T16:16:49;5.70;33.70
29093;DHT22;16167;48.768;14.984;2023-02-15T16:19:22;5.50;25.40
29093;DHT22;16167;48.768;14.984;2023-02-15T16:21:54;5.40;26.90
29093;DHT22;16167;48.768;14.984;2023-02-15T16:29:58;5.00;26.30
29093;DHT22;16167;48.768;14.984;2023-02-15T16:32:27;4.80;23.70